createdAt,value
2024-02-01T00:01:00.440Z,2.13
2024-02-01T00:04:02.457Z,2.35
2024-02-01T00:07:04.337Z,2.50
2024-02-01T00:10:06.722Z,2.33
2024-02-01T00:13:08.691Z,2.60
2024-02-01T00:16:10.333Z,2.50
2024-02-01T00:19:12.035Z,2.47
2024-02-01T00:22:23.171Z,2.80
2024-02-01T00:25:29.822Z,2.72
2024-02-01T00:28:34.584Z,2.42
2024-02-01T00:31:36.191Z,2.53
2024-02-01T00:34:44.349Z,2.53
2024-02-01T00:37:46.157Z,2.53
2024-02-01T00:40:47.821Z,2.35
2024-02-01T00:43:49.715Z,2.70
2024-02-01T00:46:51.390Z,2.42
2024-02-01T00:49:53.017Z,3.22
2024-02-01T00:52:54.683Z,2.75
2024-02-01T00:55:57.286Z,2.60
2024-02-01T00:58:58.945Z,2.75
2024-02-01T01:02:00.698Z,2.53
2024-02-01T01:05:05.427Z,2.60
2024-02-01T01:08:07.455Z,2.45
2024-02-01T01:11:09.384Z,2.47
2024-02-01T01:14:11.277Z,2.50
2024-02-01T01:17:13.011Z,2.63
2024-02-01T01:20:15.338Z,2.60
2024-02-01T01:23:17.009Z,2.90
2024-02-01T01:26:22.784Z,3.20
2024-02-01T01:29:24.424Z,3.30
2024-02-01T01:32:26.077Z,2.55
2024-02-01T01:35:27.824Z,2.50
2024-02-01T01:38:31.760Z,2.22
2024-02-01T01:41:33.593Z,2.28
2024-02-01T01:44:35.307Z,2.22
2024-02-01T01:47:37.030Z,2.25
2024-02-01T01:50:39.436Z,2.17
2024-02-01T01:53:41.753Z,2.45
2024-02-01T01:56:44.212Z,1.95
2024-02-01T01:59:45.984Z,2.20
2024-02-01T02:02:47.831Z,2.00
2024-02-01T02:05:49.535Z,2.38
2024-02-01T02:08:51.340Z,2.20
2024-02-01T02:11:53.004Z,2.40
2024-02-01T02:15:02.200Z,2.25
2024-02-01T02:18:11.493Z,2.33
2024-02-01T02:21:17.876Z,2.20
2024-02-01T02:24:20.055Z,2.40
2024-02-01T02:27:22.092Z,2.28
2024-02-01T02:30:23.914Z,2.60
2024-02-01T02:33:25.804Z,2.55
2024-02-01T02:36:27.524Z,2.40
2024-02-01T02:39:29.124Z,2.40
2024-02-01T02:42:30.776Z,2.45
2024-02-01T02:45:32.474Z,2.50
2024-02-01T02:48:34.487Z,2.53
2024-02-01T02:51:36.314Z,2.20
2024-02-01T02:54:37.938Z,2.28
2024-02-01T02:57:39.671Z,2.58
2024-02-01T03:00:44.174Z,2.45
2024-02-01T03:03:46.055Z,2.63
2024-02-01T03:06:47.854Z,3.10
2024-02-01T03:09:49.471Z,2.85
2024-02-01T03:12:52.559Z,3.08
2024-02-01T03:15:54.181Z,2.75
2024-02-01T03:18:59.037Z,2.90
2024-02-01T03:22:00.816Z,2.67
2024-02-01T03:25:03.840Z,3.30
2024-02-01T03:28:06.105Z,3.35
2024-02-01T03:31:08.326Z,2.83
2024-02-01T03:34:16.922Z,2.60
2024-02-01T03:37:19.707Z,2.50
2024-02-01T03:40:21.395Z,2.78
2024-02-01T03:43:23.181Z,2.80
2024-02-01T03:46:24.820Z,2.40
2024-02-01T03:49:26.660Z,2.15
2024-02-01T03:52:28.414Z,2.30
2024-02-01T03:55:30.009Z,2.33
2024-02-01T03:58:35.297Z,2.13
2024-02-01T04:01:37.911Z,1.92
2024-02-01T04:04:39.577Z,1.95
2024-02-01T04:07:41.215Z,2.00
2024-02-01T04:10:42.918Z,2.17
2024-02-01T04:13:44.829Z,1.88
2024-02-01T04:16:47.741Z,1.95
2024-02-01T04:19:49.454Z,1.77
2024-02-01T04:22:55.027Z,1.85
2024-02-01T04:25:58.161Z,1.70
2024-02-01T04:28:59.838Z,1.70
2024-02-01T04:32:01.434Z,1.80
2024-02-01T04:35:06.331Z,1.90
2024-02-01T04:38:09.784Z,2.00
2024-02-01T04:41:12.150Z,2.10
2024-02-01T04:44:14.071Z,2.00
2024-02-01T04:47:15.905Z,1.90
2024-02-01T04:50:17.689Z,2.00
2024-02-01T04:53:19.360Z,2.10
2024-02-01T04:56:20.975Z,1.73
2024-02-01T04:59:23.170Z,1.63
2024-02-01T05:02:24.832Z,1.88
2024-02-01T05:05:26.907Z,1.65
2024-02-01T05:08:28.597Z,1.73
2024-02-01T05:11:30.414Z,1.85
2024-02-01T05:14:32.128Z,1.80
2024-02-01T05:17:37.506Z,1.83
2024-02-01T05:20:39.915Z,1.85
2024-02-01T05:23:41.669Z,2.10
2024-02-01T05:26:53.562Z,2.47
2024-02-01T05:29:55.402Z,2.38
2024-02-01T05:32:57.593Z,2.30
2024-02-01T05:35:59.445Z,2.17
2024-02-01T05:39:01.228Z,2.45
2024-02-01T05:42:07.917Z,2.70
2024-02-01T05:45:10.041Z,3.20
2024-02-01T05:48:13.908Z,3.20
2024-02-01T05:51:16.068Z,3.60
2024-02-01T05:54:21.711Z,3.28
2024-02-01T05:57:23.706Z,3.53
2024-02-01T06:00:25.908Z,2.97
2024-02-01T06:03:27.737Z,3.03
2024-02-01T06:06:30.832Z,3.40
2024-02-01T06:09:32.692Z,2.72
2024-02-01T06:12:36.096Z,3.35
2024-02-01T06:15:38.602Z,3.20
2024-02-01T06:18:41.106Z,3.13
2024-02-01T06:21:43.304Z,3.33
2024-02-01T06:24:45.244Z,3.50
2024-02-01T06:27:49.914Z,2.92
2024-02-01T06:30:52.269Z,3.20
2024-02-01T06:33:55.335Z,3.30
2024-02-01T06:37:00.098Z,3.40
2024-02-01T06:40:20.159Z,3.42
2024-02-01T06:43:42.100Z,3.35
2024-02-01T06:46:51.078Z,3.60
2024-02-01T06:50:02.451Z,3.58
2024-02-01T06:53:10.369Z,4.00
2024-02-01T06:56:19.376Z,3.97
2024-02-01T06:59:35.597Z,4.35
2024-02-01T07:02:37.660Z,5.25
2024-02-01T07:05:51.629Z,4.72
2024-02-01T07:08:54.402Z,4.45
2024-02-01T07:12:10.770Z,3.90
2024-02-01T07:15:32.534Z,4.40
2024-02-01T07:18:35.074Z,3.72
2024-02-01T07:21:57.672Z,3.88
2024-02-01T07:25:11.045Z,4.70
2024-02-01T07:28:30.967Z,4.78
2024-02-01T07:31:51.009Z,4.93
2024-02-01T07:35:11.379Z,5.40
2024-02-01T07:38:32.045Z,4.75
2024-02-01T07:41:52.309Z,4.50
2024-02-01T07:45:12.329Z,4.85
2024-02-01T07:48:32.883Z,4.95
2024-02-01T07:52:13.082Z,4.55
2024-02-01T07:55:33.180Z,3.90
2024-02-01T07:58:39.621Z,3.70
2024-02-01T08:02:01.239Z,4.00
2024-02-01T08:05:21.819Z,3.58
2024-02-01T08:08:24.133Z,3.35
2024-02-01T08:11:26.318Z,3.08
2024-02-01T08:14:28.545Z,3.10
2024-02-01T08:17:30.974Z,3.35
2024-02-01T08:20:36.052Z,3.30
2024-02-01T08:23:37.768Z,3.28
2024-02-01T08:26:40.700Z,3.05
2024-02-01T08:29:42.752Z,2.92
2024-02-01T08:32:44.530Z,3.20
2024-02-01T08:35:47.472Z,3.88
2024-02-01T08:38:49.573Z,2.63
2024-02-01T08:41:51.719Z,2.83
2024-02-01T08:44:53.428Z,2.88
2024-02-01T08:48:03.754Z,2.40
2024-02-01T08:51:05.742Z,2.70
2024-02-01T08:54:12.310Z,2.20
2024-02-01T08:57:15.231Z,2.20
2024-02-01T09:00:35.628Z,2.10
2024-02-01T09:03:37.742Z,1.70
2024-02-01T09:06:39.830Z,1.90
2024-02-01T09:09:41.536Z,1.90
2024-02-01T09:12:43.150Z,1.60
2024-02-01T09:15:44.755Z,1.48
2024-02-01T09:18:46.447Z,1.90
2024-02-01T09:21:48.126Z,1.95
2024-02-01T09:24:49.703Z,2.03
2024-02-01T09:27:54.410Z,2.03
2024-02-01T09:30:56.539Z,2.00
2024-02-01T09:33:58.694Z,2.20
2024-02-01T09:37:00.485Z,2.08
2024-02-01T09:40:02.240Z,2.30
2024-02-01T09:43:04.121Z,2.05
2024-02-01T09:46:09.430Z,2.33
2024-02-01T09:49:18.104Z,2.10
2024-02-01T09:52:25.302Z,2.15
2024-02-01T09:55:27.330Z,2.10
2024-02-01T09:58:29.966Z,2.30
2024-02-01T10:01:32.228Z,2.50
2024-02-01T10:04:34.793Z,2.75
2024-02-01T10:07:36.919Z,2.28
2024-02-01T10:10:40.217Z,2.55
2024-02-01T10:13:42.771Z,2.38
2024-02-01T10:16:44.410Z,2.45
2024-02-01T10:19:50.746Z,2.40
2024-02-01T10:22:58.336Z,2.50
2024-02-01T10:25:59.947Z,2.58
2024-02-01T10:29:01.579Z,3.03
2024-02-01T10:32:08.245Z,3.00
2024-02-01T10:35:10.083Z,2.80
2024-02-01T10:38:15.140Z,2.80
2024-02-01T10:41:28.093Z,2.78
2024-02-01T10:44:35.594Z,2.80
2024-02-01T10:47:44.307Z,2.40
2024-02-01T10:50:46.915Z,2.70
2024-02-01T10:53:49.079Z,2.40
2024-02-01T10:56:50.990Z,2.45
2024-02-01T10:59:54.892Z,2.38
2024-02-01T11:02:57.376Z,2.22
2024-02-01T11:05:59.234Z,3.50
2024-02-01T11:09:19.846Z,2.78
2024-02-01T11:12:26.885Z,2.53
2024-02-01T11:15:31.028Z,2.33
2024-02-01T11:18:38.189Z,2.20
2024-02-01T11:22:05.144Z,2.25
2024-02-01T11:25:10.144Z,2.03
2024-02-01T11:28:24.475Z,1.98
2024-02-01T11:31:33.505Z,1.98
2024-02-01T11:34:51.318Z,1.80
2024-02-01T11:38:03.200Z,1.65
2024-02-01T11:41:05.310Z,1.77
2024-02-01T11:44:07.146Z,1.60
2024-02-01T11:47:12.046Z,1.88
2024-02-01T11:50:15.203Z,1.50
2024-02-01T11:53:17.399Z,1.40
2024-02-01T11:56:22.630Z,1.50
2024-02-01T11:59:27.225Z,1.40
2024-02-01T12:02:31.892Z,1.38
2024-02-01T12:05:34.553Z,1.60
2024-02-01T12:08:36.274Z,1.50
2024-02-01T12:11:38.329Z,1.60
2024-02-01T12:14:40.289Z,1.52
2024-02-01T12:17:46.858Z,1.48
2024-02-01T12:20:49.358Z,1.90
2024-02-01T12:23:51.103Z,1.63
2024-02-01T12:26:53.233Z,1.30
2024-02-01T12:29:55.009Z,1.55
2024-02-01T12:32:56.979Z,1.80
2024-02-01T12:35:58.693Z,1.60
2024-02-01T12:39:00.828Z,1.70
2024-02-01T12:42:05.138Z,1.42
2024-02-01T12:45:19.243Z,1.55
2024-02-01T12:48:21.139Z,1.85
2024-02-01T12:51:28.805Z,1.60
2024-02-01T12:54:30.828Z,1.60
2024-02-01T12:57:32.589Z,1.40
2024-02-01T13:00:34.379Z,1.50
2024-02-01T13:03:36.177Z,1.40
2024-02-01T13:06:37.990Z,1.38
2024-02-01T13:09:44.473Z,1.17
2024-02-01T13:12:59.901Z,1.52
2024-02-01T13:16:06.023Z,1.30
2024-02-01T13:19:09.827Z,1.50
2024-02-01T13:22:11.622Z,1.42
2024-02-01T13:25:20.089Z,1.50
2024-02-01T13:28:21.720Z,1.40
2024-02-01T13:31:23.314Z,1.50
2024-02-01T13:34:25.455Z,1.65
2024-02-01T13:37:27.834Z,1.77
2024-02-01T13:40:29.411Z,2.00
2024-02-01T13:43:31.159Z,1.92
2024-02-01T13:46:33.016Z,1.60
2024-02-01T13:49:35.145Z,1.77
2024-02-01T13:52:38.633Z,1.80
2024-02-01T13:55:40.261Z,1.88
2024-02-01T13:58:42.066Z,1.50
2024-02-01T14:01:44.236Z,1.95
2024-02-01T14:04:45.898Z,1.83
2024-02-01T14:07:47.638Z,1.90
2024-02-01T14:10:50.850Z,1.58
2024-02-01T14:13:53.030Z,2.75
2024-02-01T14:16:54.658Z,2.75
2024-02-01T14:19:56.551Z,2.83
2024-02-01T14:22:58.263Z,2.10
2024-02-01T14:25:59.959Z,2.10
2024-02-01T14:29:01.717Z,1.85
2024-02-01T14:32:03.634Z,1.85
2024-02-01T14:35:06.418Z,2.00
2024-02-01T14:38:08.090Z,2.95
2024-02-01T14:41:13.552Z,2.60
2024-02-01T14:44:15.260Z,2.67
2024-02-01T14:47:16.880Z,2.35
2024-02-01T14:50:20.391Z,2.88
2024-02-01T14:53:22.132Z,2.90
2024-02-01T14:56:23.697Z,2.25
2024-02-01T14:59:25.419Z,2.78
2024-02-01T15:02:27.023Z,2.65
2024-02-01T15:05:28.953Z,2.65
2024-02-01T15:08:30.622Z,2.67
2024-02-01T15:11:33.014Z,2.13
2024-02-01T15:14:36.417Z,2.63
2024-02-01T15:17:39.062Z,3.40
2024-02-01T15:20:41.036Z,2.63
2024-02-01T15:23:43.580Z,2.92
2024-02-01T15:26:45.423Z,3.58
2024-02-01T15:29:47.194Z,3.20
2024-02-01T15:32:48.970Z,2.95
2024-02-01T15:35:52.088Z,3.00
2024-02-01T15:38:56.363Z,3.00
2024-02-01T15:42:02.198Z,2.67
2024-02-01T15:45:08.297Z,3.10
2024-02-01T15:48:10.525Z,3.10
2024-02-01T15:51:16.415Z,2.67
2024-02-01T15:54:18.205Z,2.25
2024-02-01T15:57:20.014Z,2.47
2024-02-01T16:00:22.987Z,2.80
2024-02-01T16:03:26.452Z,2.70
2024-02-01T16:06:28.332Z,3.30
2024-02-01T16:09:30.319Z,3.17
2024-02-01T16:12:32.311Z,2.63
2024-02-01T16:15:37.935Z,2.65
2024-02-01T16:18:41.927Z,3.40
2024-02-01T16:21:45.445Z,3.00
2024-02-01T16:24:55.419Z,2.60
2024-02-01T16:28:02.014Z,2.53
2024-02-01T16:34:14.605Z,1.83
2024-02-01T16:37:17.600Z,1.90
2024-02-01T16:40:36.422Z,1.90
2024-02-01T16:43:40.925Z,1.90
2024-02-01T16:46:50.059Z,1.70
2024-02-01T16:49:52.119Z,1.83
2024-02-01T16:52:53.730Z,2.25
2024-02-01T16:55:56.116Z,2.50
2024-02-01T16:58:59.781Z,2.40
2024-02-01T17:02:01.561Z,2.30
2024-02-01T17:05:06.312Z,3.03
2024-02-01T17:08:08.153Z,2.58
2024-02-01T17:11:12.234Z,2.65
2024-02-01T17:14:20.068Z,2.35
2024-02-01T17:17:37.021Z,2.33
2024-02-01T17:23:40.797Z,1.45
2024-02-01T17:26:43.686Z,2.05
2024-02-01T17:29:45.808Z,1.90
2024-02-01T17:32:47.656Z,1.33
2024-02-01T17:35:49.419Z,1.52
2024-02-01T17:38:51.777Z,2.00
2024-02-01T17:41:57.528Z,1.73
2024-02-01T17:45:18.333Z,1.40
2024-02-01T17:49:02.794Z,1.88
2024-02-01T17:52:06.234Z,1.38
2024-02-01T17:55:22.299Z,1.90
2024-02-01T17:58:46.767Z,1.60
2024-02-01T18:01:49.175Z,1.55
2024-02-01T18:04:51.551Z,1.50
2024-02-01T18:07:53.497Z,1.63
2024-02-01T18:10:56.936Z,1.30
2024-02-01T18:13:58.871Z,1.63
2024-02-01T18:17:00.697Z,1.40
2024-02-01T18:20:06.923Z,2.08
2024-02-01T18:23:08.726Z,1.60
2024-02-01T18:26:11.528Z,1.88
2024-02-01T18:29:25.648Z,2.00
2024-02-01T18:32:30.783Z,1.60
2024-02-01T18:35:35.300Z,1.50
2024-02-01T18:38:52.507Z,1.38
2024-02-01T18:45:41.862Z,1.30
2024-02-01T18:48:43.734Z,1.40
2024-02-01T18:51:55.445Z,1.42
2024-02-01T18:54:57.083Z,1.40
2024-02-01T18:57:58.728Z,1.55
2024-02-01T19:01:03.388Z,1.23
2024-02-01T19:04:16.878Z,1.60
2024-02-01T19:07:18.675Z,1.63
2024-02-01T19:10:38.035Z,1.92
2024-02-01T19:13:50.784Z,1.90
2024-02-01T19:16:56.156Z,1.70
2024-02-01T19:19:58.065Z,2.10
2024-02-01T19:22:59.678Z,1.80
2024-02-01T19:26:01.478Z,1.80
2024-02-01T19:29:07.202Z,1.90
2024-02-01T19:32:28.542Z,2.20
2024-02-01T19:35:33.145Z,2.03
2024-02-01T19:38:36.907Z,1.60
2024-02-01T19:41:42.726Z,2.10
2024-02-01T19:44:44.770Z,2.20
2024-02-01T19:47:47.518Z,1.88
2024-02-01T19:50:49.323Z,2.45
2024-02-01T19:53:51.001Z,1.58
2024-02-01T19:56:52.728Z,1.50
2024-02-01T19:59:54.587Z,1.63
2024-02-01T20:02:57.303Z,1.88
2024-02-01T20:05:59.051Z,1.70
2024-02-01T20:09:02.682Z,1.73
2024-02-01T20:12:05.065Z,1.85
2024-02-01T20:15:07.357Z,1.75
2024-02-01T20:18:10.845Z,1.90
2024-02-01T20:21:13.930Z,2.10
2024-02-01T20:24:17.816Z,1.73
2024-02-01T20:27:24.855Z,1.60
2024-02-01T20:30:27.655Z,2.08
2024-02-01T20:33:31.567Z,1.88
2024-02-01T20:36:47.510Z,1.65
2024-02-01T20:39:49.228Z,1.45
2024-02-01T20:42:54.135Z,1.88
2024-02-01T20:45:58.934Z,1.70
2024-02-01T20:49:01.448Z,1.63
2024-02-01T20:52:05.855Z,1.67
2024-02-01T20:55:26.893Z,1.70
2024-02-01T20:58:56.770Z,1.67
2024-02-01T21:01:59.336Z,1.60
2024-02-01T21:05:21.340Z,1.70
2024-02-01T21:08:33.235Z,1.60
2024-02-01T21:11:51.659Z,1.83
2024-02-01T21:14:53.431Z,2.00
2024-02-01T21:17:58.602Z,1.90
2024-02-01T21:21:06.041Z,3.47
2024-02-01T21:24:08.040Z,2.00
2024-02-01T21:27:14.663Z,1.65
2024-02-01T21:33:18.757Z,1.73
2024-02-01T21:36:20.556Z,1.70
2024-02-01T21:39:50.069Z,1.50
2024-02-01T21:42:57.870Z,1.55
2024-02-01T21:46:00.832Z,1.50
2024-02-01T21:49:04.309Z,1.80
2024-02-01T21:52:06.437Z,1.70
2024-02-01T21:55:08.398Z,2.03
2024-02-01T21:58:10.727Z,1.95
2024-02-01T22:01:12.539Z,1.60
2024-02-01T22:04:14.283Z,1.40
2024-02-01T22:07:15.889Z,1.27
2024-02-01T22:10:17.895Z,1.40
2024-02-01T22:13:19.697Z,1.60
2024-02-01T22:16:21.811Z,1.48
2024-02-01T22:19:23.748Z,1.38
2024-02-01T22:22:27.092Z,1.35
2024-02-01T22:25:28.742Z,1.50
2024-02-01T22:28:30.370Z,1.40
2024-02-01T22:31:32.438Z,1.50
2024-02-01T22:34:34.233Z,1.52
2024-02-01T22:37:36.010Z,1.33
2024-02-01T22:40:37.653Z,1.52
2024-02-01T22:43:39.269Z,1.52
2024-02-01T22:46:41.120Z,1.50
2024-02-01T22:49:44.255Z,1.30
2024-02-01T22:52:46.182Z,1.33
2024-02-01T22:55:47.818Z,1.42
2024-02-01T22:58:49.453Z,1.45
2024-02-01T23:01:51.083Z,1.50
2024-02-01T23:04:52.748Z,1.27
2024-02-01T23:07:54.394Z,1.40
2024-02-01T23:10:56.481Z,1.50
2024-02-01T23:13:58.226Z,1.48
2024-02-01T23:16:59.849Z,1.60
2024-02-01T23:20:01.526Z,1.52
2024-02-01T23:23:03.834Z,1.50
2024-02-01T23:26:06.203Z,1.40
2024-02-01T23:29:07.817Z,1.55
2024-02-01T23:32:09.439Z,1.50
2024-02-01T23:35:11.038Z,1.60
2024-02-01T23:38:13.043Z,1.40
2024-02-01T23:41:14.721Z,1.60
2024-02-01T23:44:16.382Z,1.50
2024-02-01T23:47:18.295Z,1.50
2024-02-01T23:50:19.964Z,1.65
2024-02-01T23:53:21.582Z,1.67
2024-02-01T23:56:24.101Z,1.73
2024-02-01T23:59:25.725Z,1.70
